createdAt,value
2023-01-09T04:02:03.917Z,1.30
2023-01-09T04:04:33.895Z,1.30
2023-01-09T04:07:02.790Z,1.63
2023-01-09T04:09:31.740Z,2.50
2023-01-09T04:12:00.623Z,1.30
2023-01-09T04:14:29.801Z,1.63
2023-01-09T04:16:58.585Z,1.60
2023-01-09T04:19:27.835Z,1.63
2023-01-09T04:21:57.143Z,1.17
2023-01-09T04:24:26.493Z,2.33
2023-01-09T04:26:55.228Z,1.90
2023-01-09T04:29:24.373Z,2.40
2023-01-09T04:31:53.287Z,1.45
2023-01-09T04:34:26.894Z,1.30
2023-01-09T04:36:56.913Z,1.95
2023-01-09T04:39:25.861Z,1.95
2023-01-09T04:41:54.971Z,1.13
2023-01-09T04:44:28.530Z,1.33
2023-01-09T04:47:00.193Z,2.00
2023-01-09T04:49:29.812Z,1.00
2023-01-09T04:51:58.496Z,1.77
2023-01-09T04:54:28.781Z,1.23
2023-01-09T04:56:57.991Z,2.28
2023-01-09T04:59:27.644Z,1.20
2023-01-09T05:01:59.090Z,1.70
2023-01-09T05:04:29.092Z,1.42
2023-01-09T05:06:57.839Z,2.45
2023-01-09T05:09:27.171Z,1.30
2023-01-09T05:11:56.586Z,1.30
2023-01-09T05:14:25.262Z,1.93
2023-01-09T05:16:54.685Z,1.63
2023-01-09T05:19:25.231Z,1.10
2023-01-09T05:21:54.223Z,1.40
2023-01-09T05:24:23.183Z,2.35
2023-01-09T05:26:52.503Z,1.80
2023-01-09T05:29:21.313Z,1.70
2023-01-09T05:31:50.622Z,2.20
2023-01-09T05:34:19.985Z,1.63
2023-01-09T05:36:49.021Z,1.73
2023-01-09T05:39:18.195Z,1.92
2023-01-09T05:41:47.498Z,2.33
2023-01-09T05:44:16.981Z,2.00
2023-01-09T05:46:46.012Z,2.45
2023-01-09T05:49:18.275Z,1.60
2023-01-09T05:51:48.001Z,2.53
2023-01-09T05:54:16.810Z,2.40
2023-01-09T05:56:45.753Z,2.13
2023-01-09T05:59:14.857Z,1.95
2023-01-09T06:01:43.788Z,2.45
2023-01-09T06:04:12.627Z,1.67
2023-01-09T06:06:42.104Z,1.95
2023-01-09T06:09:11.501Z,2.45
2023-01-09T06:11:42.209Z,1.50
2023-01-09T06:14:12.280Z,1.67
2023-01-09T06:16:42.841Z,2.30
2023-01-09T06:19:13.568Z,1.60
2023-01-09T06:21:42.510Z,2.30
2023-01-09T06:24:11.401Z,2.17
2023-01-09T06:26:40.837Z,3.20
2023-01-09T06:29:10.055Z,3.28
2023-01-09T06:31:39.179Z,1.92
2023-01-09T06:34:12.380Z,1.58
2023-01-09T06:36:42.003Z,3.33
2023-01-09T06:39:10.731Z,2.05
2023-01-09T06:41:39.743Z,2.10
2023-01-09T06:44:08.375Z,2.45
2023-01-09T06:46:37.579Z,2.85
2023-01-09T06:49:06.319Z,3.33
2023-01-09T06:51:35.848Z,2.25
2023-01-09T06:54:05.323Z,2.85
2023-01-09T06:56:34.316Z,2.75
2023-01-09T06:59:03.063Z,2.35
2023-01-09T07:01:35.079Z,2.60
2023-01-09T07:04:06.247Z,3.65
2023-01-09T07:06:35.516Z,2.60
2023-01-09T07:09:05.908Z,3.13
2023-01-09T07:11:35.005Z,2.23
2023-01-09T07:14:03.646Z,3.30
2023-01-09T07:16:33.030Z,3.70
2023-01-09T07:19:01.977Z,3.65
2023-01-09T07:21:32.778Z,4.68
2023-01-09T07:24:40.848Z,4.65
2023-01-09T07:27:10.683Z,4.40
2023-01-09T07:29:40.385Z,4.22
2023-01-09T07:32:11.523Z,5.00
2023-01-09T07:34:41.231Z,4.55
2023-01-09T07:37:11.565Z,5.05
2023-01-09T07:39:43.062Z,4.57
2023-01-09T07:42:13.221Z,6.03
2023-01-09T07:44:42.438Z,4.25
2023-01-09T07:47:13.562Z,4.03
2023-01-09T07:49:46.842Z,4.93
2023-01-09T07:52:17.328Z,3.72
2023-01-09T07:54:48.923Z,5.00
2023-01-09T07:57:19.160Z,3.80
2023-01-09T07:59:49.619Z,3.80
2023-01-09T08:02:21.909Z,4.17
2023-01-09T08:04:52.623Z,3.93
2023-01-09T08:07:21.782Z,4.47
2023-01-09T08:09:51.641Z,5.57
2023-01-09T08:12:21.720Z,3.83
2023-01-09T08:14:52.766Z,4.25
2023-01-09T08:17:22.201Z,3.42
2023-01-09T08:19:51.402Z,4.25
2023-01-09T08:22:24.047Z,3.47
2023-01-09T08:24:56.082Z,2.60
2023-01-09T08:27:28.412Z,3.60
2023-01-09T08:29:58.929Z,3.25
2023-01-09T08:32:28.521Z,4.28
2023-01-09T08:34:57.786Z,2.97
2023-01-09T08:38:04.327Z,5.15
2023-01-09T08:40:34.927Z,4.25
2023-01-09T08:43:22.523Z,5.97
2023-01-09T08:46:10.199Z,5.00
2023-01-09T08:48:39.264Z,4.65
2023-01-09T08:51:08.443Z,4.68
2023-01-09T08:53:37.762Z,4.90
2023-01-09T08:56:07.131Z,3.05
2023-01-09T08:58:36.232Z,2.17
2023-01-09T09:01:09.763Z,2.55
2023-01-09T09:03:38.931Z,2.58
2023-01-09T09:06:08.102Z,2.50
2023-01-09T09:08:37.405Z,2.38
2023-01-09T09:11:06.348Z,2.65
2023-01-09T09:13:35.510Z,2.08
2023-01-09T09:16:04.229Z,2.15
2023-01-09T09:18:33.032Z,2.53
2023-01-09T09:21:01.752Z,1.73
2023-01-09T09:23:30.921Z,1.80
2023-01-09T09:25:59.738Z,3.35
2023-01-09T09:28:28.546Z,3.42
2023-01-09T09:30:57.306Z,3.83
2023-01-09T09:33:26.020Z,2.83
2023-01-09T09:35:54.746Z,1.83
2023-01-09T09:38:24.294Z,2.53
2023-01-09T09:41:47.623Z,2.17
2023-01-09T09:44:54.780Z,2.17
2023-01-09T09:47:49.993Z,2.83
2023-01-09T09:50:44.810Z,2.67
2023-01-09T09:53:22.893Z,2.90
2023-01-09T09:55:52.618Z,3.70
2023-01-09T09:58:33.597Z,2.85
2023-01-09T10:01:04.033Z,2.60
2023-01-09T10:04:01.920Z,2.15
2023-01-09T10:06:44.025Z,2.65
2023-01-09T10:09:37.331Z,2.50
2023-01-09T10:12:16.751Z,2.33
2023-01-09T10:14:45.884Z,3.10
2023-01-09T10:17:51.690Z,2.70
2023-01-09T10:20:26.619Z,2.40
2023-01-09T10:23:21.693Z,3.00
2023-01-09T10:25:52.749Z,2.40
2023-01-09T10:28:52.196Z,3.05
2023-01-09T10:31:31.076Z,2.97
2023-01-09T10:34:00.197Z,3.80
2023-01-09T10:36:35.164Z,2.20
2023-01-09T10:39:09.437Z,4.28
2023-01-09T10:42:19.704Z,3.95
2023-01-09T10:45:01.343Z,2.42
2023-01-09T10:47:35.297Z,2.63
2023-01-09T10:50:22.043Z,2.10
2023-01-09T10:52:54.266Z,3.25
2023-01-09T10:55:33.304Z,2.88
2023-01-09T10:58:13.429Z,2.60
2023-01-09T11:00:43.694Z,3.10
2023-01-09T11:03:14.628Z,2.75
2023-01-09T11:05:52.570Z,2.40
2023-01-09T11:08:42.972Z,3.67
2023-01-09T11:11:13.768Z,2.25
2023-01-09T11:13:48.011Z,4.47
2023-01-09T11:16:24.804Z,4.28
2023-01-09T11:18:55.131Z,7.70
2023-01-09T11:21:41.599Z,7.23
2023-01-09T11:24:22.452Z,4.82
2023-01-09T11:26:54.062Z,5.38
2023-01-09T11:29:27.543Z,4.18
2023-01-09T11:32:01.555Z,8.50
2023-01-09T11:34:33.807Z,8.07
2023-01-09T11:37:09.943Z,7.65
2023-01-09T11:39:42.941Z,5.65
2023-01-09T11:42:45.417Z,5.18
2023-01-09T11:45:20.685Z,5.30
2023-01-09T11:47:49.958Z,4.13
2023-01-09T11:50:23.133Z,4.50
2023-01-09T11:53:17.472Z,4.57
2023-01-09T11:55:48.442Z,4.57
2023-01-09T11:58:19.018Z,4.28
2023-01-09T12:01:02.500Z,4.35
2023-01-09T12:04:02.322Z,5.20
2023-01-09T12:06:40.604Z,5.68
2023-01-09T12:09:23.989Z,6.15
2023-01-09T12:12:06.042Z,6.63
2023-01-09T12:15:25.949Z,4.97
2023-01-09T12:18:24.698Z,4.53
2023-01-09T12:21:11.589Z,6.15
2023-01-09T12:24:05.334Z,5.83
2023-01-09T12:26:42.181Z,4.97
2023-01-09T12:29:20.930Z,6.65
2023-01-09T12:32:01.567Z,4.13
2023-01-09T12:35:12.179Z,4.25
2023-01-09T12:37:52.540Z,4.50
2023-01-09T12:40:31.417Z,5.50
2023-01-09T12:43:26.457Z,4.88
2023-01-09T12:46:19.612Z,4.80
2023-01-09T12:49:13.650Z,3.75
2023-01-09T12:51:58.031Z,3.65
2023-01-09T12:54:45.166Z,3.38
2023-01-09T12:57:32.463Z,3.80
2023-01-09T13:00:07.482Z,3.65
2023-01-09T13:03:00.431Z,3.17
2023-01-09T13:05:45.138Z,3.90
2023-01-09T13:08:20.203Z,3.78
2023-01-09T13:10:54.773Z,3.45
2023-01-09T13:13:35.597Z,3.30
2023-01-09T13:16:11.827Z,3.63
2023-01-09T13:18:49.885Z,3.38
2023-01-09T13:21:19.850Z,3.10
2023-01-09T13:23:58.862Z,4.60
2023-01-09T13:26:34.237Z,4.57
2023-01-09T13:29:52.497Z,4.40
2023-01-09T13:32:58.845Z,4.25
2023-01-09T13:35:28.484Z,4.22
2023-01-09T13:37:57.606Z,4.27
2023-01-09T13:40:31.562Z,3.70
2023-01-09T13:43:02.617Z,3.40
2023-01-09T13:45:38.612Z,4.72
2023-01-09T13:48:21.163Z,6.53
2023-01-09T13:50:53.264Z,4.85
2023-01-09T13:53:26.606Z,4.88
2023-01-09T13:56:00.023Z,4.00
2023-01-09T13:58:41.476Z,4.18
2023-01-09T14:01:35.639Z,3.50
2023-01-09T14:04:14.981Z,3.72
2023-01-09T14:06:46.071Z,4.57
2023-01-09T14:09:24.292Z,5.80
2023-01-09T14:12:16.337Z,5.93
2023-01-09T14:14:47.333Z,7.25
2023-01-09T14:17:19.791Z,5.88
2023-01-09T14:19:57.433Z,6.18
2023-01-09T14:22:35.091Z,11.30
2023-01-09T14:28:00.327Z,6.70
2023-01-09T14:30:29.489Z,6.68
2023-01-09T14:33:02.649Z,4.78
2023-01-09T14:36:06.954Z,4.07
2023-01-09T14:38:55.006Z,3.50
2023-01-09T14:42:07.335Z,3.35
2023-01-09T14:44:50.519Z,4.25
2023-01-09T14:47:41.650Z,5.32
2023-01-09T14:50:37.031Z,7.03
2023-01-09T14:53:21.044Z,6.40
2023-01-09T14:55:52.022Z,7.68
2023-01-09T14:58:32.842Z,9.73
2023-01-09T15:01:16.771Z,8.98
2023-01-09T15:04:00.500Z,6.93
2023-01-09T15:06:33.988Z,8.43
2023-01-09T15:09:21.703Z,7.88
2023-01-09T15:11:51.993Z,8.52
2023-01-09T15:14:39.161Z,7.15
2023-01-09T15:17:18.520Z,7.80
2023-01-09T15:19:48.312Z,6.78
2023-01-09T15:22:39.092Z,7.40
2023-01-09T15:25:40.389Z,5.55
2023-01-09T15:28:33.865Z,6.00
2023-01-09T15:31:25.186Z,5.90
2023-01-09T15:33:55.121Z,3.80
2023-01-09T15:36:27.525Z,6.78
2023-01-09T15:38:57.172Z,3.72
2023-01-09T15:41:46.698Z,5.40
2023-01-09T15:44:31.512Z,3.55
2023-01-09T15:47:02.032Z,3.88
2023-01-09T15:49:31.663Z,4.25
2023-01-09T15:52:01.483Z,7.05
2023-01-09T15:54:33.271Z,7.25
2023-01-09T15:57:26.905Z,8.30
2023-01-09T15:59:57.404Z,3.45
2023-01-09T16:02:45.913Z,3.78
2023-01-09T16:05:17.962Z,3.50
2023-01-09T16:07:52.085Z,3.30
2023-01-09T16:10:31.450Z,4.63
2023-01-09T16:13:00.761Z,3.13
2023-01-09T16:15:35.945Z,2.63
2023-01-09T16:18:17.476Z,3.10
2023-01-09T16:20:47.436Z,5.75
2023-01-09T16:23:26.133Z,5.28
2023-01-09T16:26:11.890Z,8.53
2023-01-09T16:28:44.393Z,7.47
2023-01-09T16:31:32.377Z,8.65
2023-01-09T16:34:09.002Z,6.57
2023-01-09T16:36:38.560Z,7.65
2023-01-09T16:39:07.720Z,7.43
2023-01-09T16:41:55.141Z,9.52
2023-01-09T16:44:24.401Z,8.50
2023-01-09T16:46:53.423Z,9.88
2023-01-09T16:49:25.176Z,9.90
2023-01-09T16:51:54.962Z,9.73
2023-01-09T16:54:23.887Z,7.43
2023-01-09T16:56:55.995Z,6.77
2023-01-09T16:59:28.461Z,6.60
2023-01-09T17:01:57.599Z,10.00
2023-01-09T17:04:26.433Z,7.47
2023-01-09T17:06:55.542Z,7.05
